sensor_id;sensor_type;location;lat;lon;timestamp;temperature;humidity
46231;DHT22;31949;51.404;-0.038;2023-04-25T00:00:23;7.00;99.90
46231;DHT22;31949;51.404;-0.038;2023-04-25T00:02:50;7.00;99.90
46231;DHT22;31949;51.404;-0.038;2023-04-25T00:05:18;7.00;99.90
46231;DHT22;31949;51.404;-0.038;2023-04-25T00:07:49;7.00;99.90
46231;DHT22;31949;51.404;-0.038;2023-04-25T00:10:16;6.90;99.90
46231;DHT22;31949;51.404;-0.038;2023-04-25T00:12:43;6.90;99.90
46231;DHT22;31949;51.404;-0.038;2023-04-25T00:15:11;6.90;99.90
46231;DHT22;31949;51.404;-0.038;2023-04-25T00:17:38;6.90;99.90
46231;DHT22;31949;51.404;-0.038;2023-04-25T00:20:07;6.80;99.90
46231;DHT22;31949;51.404;-0.038;2023-04-25T00:22:36;6.80;99.90
46231;DHT22;31949;51.404;-0.038;2023-04-25T00:25:07;6.80;99.90
46231;DHT22;31949;51.404;-0.038;2023-04-25T00:27:34;6.80;99.90
46231;DHT22;31949;51.404;-0.038;2023-04-25T00:30:01;6.70;99.90
46231;DHT22;31949;51.404;-0.038;2023-04-25T00:32:30;6.60;99.90
46231;DHT22;31949;51.404;-0.038;2023-04-25T00:34:57;6.60;99.90
46231;DHT22;31949;51.404;-0.038;2023-04-25T00:37:25;6.60;99.90
46231;DHT22;31949;51.404;-0.038;2023-04-25T00:39:52;6.60;99.90
46231;DHT22;31949;51.404;-0.038;2023-04-25T00:42:21;6.50;99.90
46231;DHT22;31949;51.404;-0.038;2023-04-25T00:44:49;6.40;99.90
46231;DHT22;31949;51.404;-0.038;2023-04-25T00:47:18;6.40;99.90
46231;DHT22;31949;51.404;-0.038;2023-04-25T00:49:47;6.40;99.90
46231;DHT22;31949;51.404;-0.038;2023-04-25T00:52:14;6.30;99.90
46231;DHT22;31949;51.404;-0.038;2023-04-25T00:54:42;6.30;99.90
46231;DHT22;31949;51.404;-0.038;2023-04-25T00:57:11;6.20;99.90
46231;DHT22;31949;51.404;-0.038;2023-04-25T00:59:45;6.20;99.90
46231;DHT22;31949;51.404;-0.038;2023-04-25T01:02:13;6.10;99.90
46231;DHT22;31949;51.404;-0.038;2023-04-25T01:04:41;6.10;99.90
46231;DHT22;31949;51.404;-0.038;2023-04-25T01:07:09;6.10;99.90
46231;DHT22;31949;51.404;-0.038;2023-04-25T01:09:37;6.10;99.90
46231;DHT22;31949;51.404;-0.038;2023-04-25T01:12:04;6.00;99.90
46231;DHT22;31949;51.404;-0.038;2023-04-25T01:14:31;5.90;99.90
46231;DHT22;31949;51.404;-0.038;2023-04-25T01:16:58;5.90;99.90
46231;DHT22;31949;51.404;-0.038;2023-04-25T01:19:26;5.90;99.90
46231;DHT22;31949;51.404;-0.038;2023-04-25T01:21:53;5.90;99.90
46231;DHT22;31949;51.404;-0.038;2023-04-25T01:24:21;5.80;99.90
46231;DHT22;31949;51.404;-0.038;2023-04-25T01:26:48;5.80;99.90
46231;DHT22;31949;51.404;-0.038;2023-04-25T01:29:23;5.70;99.90
46231;DHT22;31949;51.404;-0.038;2023-04-25T01:31:52;5.70;99.90
46231;DHT22;31949;51.404;-0.038;2023-04-25T01:34:20;5.70;99.90
46231;DHT22;31949;51.404;-0.038;2023-04-25T01:36:49;5.60;99.90
46231;DHT22;31949;51.404;-0.038;2023-04-25T01:39:18;5.60;99.90
46231;DHT22;31949;51.404;-0.038;2023-04-25T01:41:49;5.60;99.90
46231;DHT22;31949;51.404;-0.038;2023-04-25T01:44:16;5.60;99.90
46231;DHT22;31949;51.404;-0.038;2023-04-25T01:46:43;5.50;99.90
46231;DHT22;31949;51.404;-0.038;2023-04-25T01:49:11;5.50;99.90
46231;DHT22;31949;51.404;-0.038;2023-04-25T01:51:40;5.50;99.90
46231;DHT22;31949;51.404;-0.038;2023-04-25T01:54:08;5.40;99.90
46231;DHT22;31949;51.404;-0.038;2023-04-25T01:56:37;5.40;99.90
46231;DHT22;31949;51.404;-0.038;2023-04-25T01:59:06;5.40;99.90
46231;DHT22;31949;51.404;-0.038;2023-04-25T02:02:03;5.40;99.90
46231;DHT22;31949;51.404;-0.038;2023-04-25T02:04:32;5.30;99.90
46231;DHT22;31949;51.404;-0.038;2023-04-25T02:07:00;5.30;99.90
46231;DHT22;31949;51.404;-0.038;2023-04-25T02:09:37;5.30;99.90
46231;DHT22;31949;51.404;-0.038;2023-04-25T02:12:08;5.30;99.90
46231;DHT22;31949;51.404;-0.038;2023-04-25T02:15:08;5.20;99.90
46231;DHT22;31949;51.404;-0.038;2023-04-25T02:17:40;5.20;99.90
46231;DHT22;31949;51.404;-0.038;2023-04-25T02:20:08;5.10;99.90
46231;DHT22;31949;51.404;-0.038;2023-04-25T02:22:35;5.10;99.90
46231;DHT22;31949;51.404;-0.038;2023-04-25T02:25:05;5.00;99.90
46231;DHT22;31949;51.404;-0.038;2023-04-25T02:27:33;5.00;99.90
46231;DHT22;31949;51.404;-0.038;2023-04-25T02:30:00;5.00;99.90
46231;DHT22;31949;51.404;-0.038;2023-04-25T02:32:27;4.90;99.90
46231;DHT22;31949;51.404;-0.038;2023-04-25T02:34:55;4.90;99.90
46231;DHT22;31949;51.404;-0.038;2023-04-25T02:37:22;4.90;99.90
46231;DHT22;31949;51.404;-0.038;2023-04-25T02:39:49;4.90;99.90
46231;DHT22;31949;51.404;-0.038;2023-04-25T02:42:17;4.80;99.90
46231;DHT22;31949;51.404;-0.038;2023-04-25T02:44:45;4.80;99.90
46231;DHT22;31949;51.404;-0.038;2023-04-25T02:47:12;4.80;99.90
46231;DHT22;31949;51.404;-0.038;2023-04-25T02:49:39;4.80;99.90
46231;DHT22;31949;51.404;-0.038;2023-04-25T02:52:07;4.80;99.90
46231;DHT22;31949;51.404;-0.038;2023-04-25T02:54:35;4.70;99.90
46231;DHT22;31949;51.404;-0.038;2023-04-25T02:57:02;4.70;99.90
46231;DHT22;31949;51.404;-0.038;2023-04-25T02:59:35;4.70;99.90
46231;DHT22;31949;51.404;-0.038;2023-04-25T03:02:03;4.70;99.90
46231;DHT22;31949;51.404;-0.038;2023-04-25T03:04:30;4.70;99.90
46231;DHT22;31949;51.404;-0.038;2023-04-25T03:06:57;4.60;99.90
46231;DHT22;31949;51.404;-0.038;2023-04-25T03:09:25;4.60;99.90
46231;DHT22;31949;51.404;-0.038;2023-04-25T03:11:52;4.60;99.90
46231;DHT22;31949;51.404;-0.038;2023-04-25T03:14:20;4.60;99.90
46231;DHT22;31949;51.404;-0.038;2023-04-25T03:16:47;4.60;99.90
46231;DHT22;31949;51.404;-0.038;2023-04-25T03:19:16;4.60;99.90
46231;DHT22;31949;51.404;-0.038;2023-04-25T03:21:44;4.50;99.90
46231;DHT22;31949;51.404;-0.038;2023-04-25T03:24:12;4.50;99.90
46231;DHT22;31949;51.404;-0.038;2023-04-25T03:26:39;4.50;99.90
46231;DHT22;31949;51.404;-0.038;2023-04-25T03:29:08;4.50;99.90
46231;DHT22;31949;51.404;-0.038;2023-04-25T03:31:37;4.50;99.90
46231;DHT22;31949;51.404;-0.038;2023-04-25T03:34:04;4.50;99.90
46231;DHT22;31949;51.404;-0.038;2023-04-25T03:36:32;4.40;99.90
46231;DHT22;31949;51.404;-0.038;2023-04-25T03:39:00;4.50;99.90
46231;DHT22;31949;51.404;-0.038;2023-04-25T03:41:29;4.40;99.90
46231;DHT22;31949;51.404;-0.038;2023-04-25T03:44:02;4.40;99.90
46231;DHT22;31949;51.404;-0.038;2023-04-25T03:46:29;4.40;99.90
46231;DHT22;31949;51.404;-0.038;2023-04-25T03:48:57;4.30;99.90
46231;DHT22;31949;51.404;-0.038;2023-04-25T03:51:33;4.30;99.90
46231;DHT22;31949;51.404;-0.038;2023-04-25T03:54:01;4.30;99.90
46231;DHT22;31949;51.404;-0.038;2023-04-25T03:56:37;4.30;99.90
46231;DHT22;31949;51.404;-0.038;2023-04-25T03:59:14;4.30;99.90
46231;DHT22;31949;51.404;-0.038;2023-04-25T04:01:42;4.20;99.90
46231;DHT22;31949;51.404;-0.038;2023-04-25T04:04:09;4.20;99.90
46231;DHT22;31949;51.404;-0.038;2023-04-25T04:06:36;4.20;99.90
46231;DHT22;31949;51.404;-0.038;2023-04-25T04:09:12;4.20;99.90
46231;DHT22;31949;51.404;-0.038;2023-04-25T04:11:42;4.20;99.90
46231;DHT22;31949;51.404;-0.038;2023-04-25T04:14:09;4.20;99.90
46231;DHT22;31949;51.404;-0.038;2023-04-25T04:16:41;4.20;99.90
46231;DHT22;31949;51.404;-0.038;2023-04-25T04:19:08;4.10;99.90
46231;DHT22;31949;51.404;-0.038;2023-04-25T04:21:37;4.10;99.90
46231;DHT22;31949;51.404;-0.038;2023-04-25T04:24:05;4.10;99.90
46231;DHT22;31949;51.404;-0.038;2023-04-25T04:26:44;4.10;99.90
46231;DHT22;31949;51.404;-0.038;2023-04-25T04:29:28;4.10;99.90
46231;DHT22;31949;51.404;-0.038;2023-04-25T04:32:07;4.00;99.90
46231;DHT22;31949;51.404;-0.038;2023-04-25T04:34:36;4.00;99.90
46231;DHT22;31949;51.404;-0.038;2023-04-25T04:37:03;4.00;99.90
46231;DHT22;31949;51.404;-0.038;2023-04-25T04:39:30;4.00;99.90
46231;DHT22;31949;51.404;-0.038;2023-04-25T04:42:06;4.00;99.90
46231;DHT22;31949;51.404;-0.038;2023-04-25T04:44:56;4.00;99.90
46231;DHT22;31949;51.404;-0.038;2023-04-25T04:47:39;3.90;99.90
46231;DHT22;31949;51.404;-0.038;2023-04-25T04:50:25;3.90;99.90
46231;DHT22;31949;51.404;-0.038;2023-04-25T04:53:18;4.00;99.90
46231;DHT22;31949;51.404;-0.038;2023-04-25T04:56:09;3.90;99.90
46231;DHT22;31949;51.404;-0.038;2023-04-25T04:58:57;3.90;99.90
46231;DHT22;31949;51.404;-0.038;2023-04-25T05:02:03;3.90;99.90
46231;DHT22;31949;51.404;-0.038;2023-04-25T05:04:58;3.90;99.90
46231;DHT22;31949;51.404;-0.038;2023-04-25T05:07:25;3.90;99.90
46231;DHT22;31949;51.404;-0.038;2023-04-25T05:10:06;3.90;99.90
46231;DHT22;31949;51.404;-0.038;2023-04-25T05:13:02;3.90;99.90
46231;DHT22;31949;51.404;-0.038;2023-04-25T05:15:48;3.90;99.90
46231;DHT22;31949;51.404;-0.038;2023-04-25T05:18:18;3.90;99.90
46231;DHT22;31949;51.404;-0.038;2023-04-25T05:21:06;3.90;99.90
46231;DHT22;31949;51.404;-0.038;2023-04-25T05:23:40;3.90;99.90
46231;DHT22;31949;51.404;-0.038;2023-04-25T05:26:26;3.90;99.90
46231;DHT22;31949;51.404;-0.038;2023-04-25T05:29:20;4.00;99.90
46231;DHT22;31949;51.404;-0.038;2023-04-25T05:32:14;4.00;99.90
46231;DHT22;31949;51.404;-0.038;2023-04-25T05:34:41;4.00;99.90
46231;DHT22;31949;51.404;-0.038;2023-04-25T05:37:18;4.00;99.90
46231;DHT22;31949;51.404;-0.038;2023-04-25T05:40:09;3.90;99.90
46231;DHT22;31949;51.404;-0.038;2023-04-25T05:42:55;3.90;99.90
46231;DHT22;31949;51.404;-0.038;2023-04-25T05:45:30;3.90;99.90
46231;DHT22;31949;51.404;-0.038;2023-04-25T05:48:03;3.90;99.90
46231;DHT22;31949;51.404;-0.038;2023-04-25T05:50:58;3.90;99.90
46231;DHT22;31949;51.404;-0.038;2023-04-25T05:53:45;4.00;99.90
46231;DHT22;31949;51.404;-0.038;2023-04-25T05:56:13;4.00;99.90
46231;DHT22;31949;51.404;-0.038;2023-04-25T05:58:41;4.10;99.90
46231;DHT22;31949;51.404;-0.038;2023-04-25T06:01:11;4.10;99.90
46231;DHT22;31949;51.404;-0.038;2023-04-25T06:03:39;4.10;99.90
46231;DHT22;31949;51.404;-0.038;2023-04-25T06:06:11;4.20;99.90
46231;DHT22;31949;51.404;-0.038;2023-04-25T06:08:39;4.20;99.90
46231;DHT22;31949;51.404;-0.038;2023-04-25T06:11:07;4.20;99.90
46231;DHT22;31949;51.404;-0.038;2023-04-25T06:13:34;4.30;99.90
46231;DHT22;31949;51.404;-0.038;2023-04-25T06:16:01;4.30;99.90
46231;DHT22;31949;51.404;-0.038;2023-04-25T06:18:29;4.40;99.90
46231;DHT22;31949;51.404;-0.038;2023-04-25T06:20:56;4.50;99.90
46231;DHT22;31949;51.404;-0.038;2023-04-25T06:23:24;4.50;99.90
46231;DHT22;31949;51.404;-0.038;2023-04-25T06:25:59;4.60;99.90
46231;DHT22;31949;51.404;-0.038;2023-04-25T06:28:27;4.60;99.90
46231;DHT22;31949;51.404;-0.038;2023-04-25T06:30:54;4.80;99.90
46231;DHT22;31949;51.404;-0.038;2023-04-25T06:33:22;4.90;99.90
46231;DHT22;31949;51.404;-0.038;2023-04-25T06:35:51;5.10;99.90
46231;DHT22;31949;51.404;-0.038;2023-04-25T06:38:23;5.30;99.90
46231;DHT22;31949;51.404;-0.038;2023-04-25T06:40:52;5.40;99.90
46231;DHT22;31949;51.404;-0.038;2023-04-25T06:43:19;5.60;99.90
46231;DHT22;31949;51.404;-0.038;2023-04-25T06:46:10;5.70;99.90
46231;DHT22;31949;51.404;-0.038;2023-04-25T06:48:43;5.80;99.90
46231;DHT22;31949;51.404;-0.038;2023-04-25T06:51:10;5.90;99.90
46231;DHT22;31949;51.404;-0.038;2023-04-25T06:53:40;6.10;99.90
46231;DHT22;31949;51.404;-0.038;2023-04-25T06:56:11;6.20;99.90
46231;DHT22;31949;51.404;-0.038;2023-04-25T06:58:51;6.20;99.90
46231;DHT22;31949;51.404;-0.038;2023-04-25T07:01:36;6.40;99.90
46231;DHT22;31949;51.404;-0.038;2023-04-25T07:04:08;6.40;99.90
46231;DHT22;31949;51.404;-0.038;2023-04-25T07:06:40;6.50;99.90
46231;DHT22;31949;51.404;-0.038;2023-04-25T07:09:11;6.60;99.90
46231;DHT22;31949;51.404;-0.038;2023-04-25T07:11:41;6.60;99.90
46231;DHT22;31949;51.404;-0.038;2023-04-25T07:14:08;6.80;99.90
46231;DHT22;31949;51.404;-0.038;2023-04-25T07:16:35;6.90;99.90
46231;DHT22;31949;51.404;-0.038;2023-04-25T07:19:03;6.80;99.90
46231;DHT22;31949;51.404;-0.038;2023-04-25T07:21:30;6.80;99.90
46231;DHT22;31949;51.404;-0.038;2023-04-25T07:24:00;6.80;99.90
46231;DHT22;31949;51.404;-0.038;2023-04-25T07:26:31;7.00;99.90
46231;DHT22;31949;51.404;-0.038;2023-04-25T07:29:24;7.10;99.90
46231;DHT22;31949;51.404;-0.038;2023-04-25T07:31:51;7.20;99.90
46231;DHT22;31949;51.404;-0.038;2023-04-25T07:34:20;7.20;99.90
46231;DHT22;31949;51.404;-0.038;2023-04-25T07:36:48;7.20;99.90
46231;DHT22;31949;51.404;-0.038;2023-04-25T07:39:15;7.10;99.90
46231;DHT22;31949;51.404;-0.038;2023-04-25T07:41:43;7.20;99.90
46231;DHT22;31949;51.404;-0.038;2023-04-25T07:44:16;7.30;99.90
46231;DHT22;31949;51.404;-0.038;2023-04-25T07:46:44;7.10;99.90
46231;DHT22;31949;51.404;-0.038;2023-04-25T07:49:11;7.20;99.90
46231;DHT22;31949;51.404;-0.038;2023-04-25T07:51:42;7.30;99.90
46231;DHT22;31949;51.404;-0.038;2023-04-25T07:54:14;7.40;99.90
46231;DHT22;31949;51.404;-0.038;2023-04-25T07:56:47;7.50;99.90
46231;DHT22;31949;51.404;-0.038;2023-04-25T07:59:22;7.80;99.90
46231;DHT22;31949;51.404;-0.038;2023-04-25T08:01:50;7.80;99.90
46231;DHT22;31949;51.404;-0.038;2023-04-25T08:04:19;7.90;99.90
46231;DHT22;31949;51.404;-0.038;2023-04-25T08:06:52;7.90;99.90
46231;DHT22;31949;51.404;-0.038;2023-04-25T08:09:27;8.00;99.90
46231;DHT22;31949;51.404;-0.038;2023-04-25T08:11:55;8.00;99.90
46231;DHT22;31949;51.404;-0.038;2023-04-25T08:14:30;8.00;99.90
46231;DHT22;31949;51.404;-0.038;2023-04-25T08:17:04;8.00;99.90
46231;DHT22;31949;51.404;-0.038;2023-04-25T08:19:39;8.00;99.90
46231;DHT22;31949;51.404;-0.038;2023-04-25T08:22:13;7.90;99.90
46231;DHT22;31949;51.404;-0.038;2023-04-25T08:24:50;8.00;99.90
46231;DHT22;31949;51.404;-0.038;2023-04-25T08:27:20;8.10;99.90
46231;DHT22;31949;51.404;-0.038;2023-04-25T08:29:48;8.20;99.90
46231;DHT22;31949;51.404;-0.038;2023-04-25T08:32:15;8.30;99.90
46231;DHT22;31949;51.404;-0.038;2023-04-25T08:35:00;8.30;99.90
46231;DHT22;31949;51.404;-0.038;2023-04-25T08:37:28;8.30;99.90
46231;DHT22;31949;51.404;-0.038;2023-04-25T08:40:00;8.40;99.90
46231;DHT22;31949;51.404;-0.038;2023-04-25T08:42:58;8.30;99.90
46231;DHT22;31949;51.404;-0.038;2023-04-25T08:45:28;8.20;99.90
46231;DHT22;31949;51.404;-0.038;2023-04-25T08:47:58;8.20;99.90
46231;DHT22;31949;51.404;-0.038;2023-04-25T08:50:26;8.20;99.90
46231;DHT22;31949;51.404;-0.038;2023-04-25T08:52:54;8.20;99.90
46231;DHT22;31949;51.404;-0.038;2023-04-25T08:55:25;8.30;99.90
46231;DHT22;31949;51.404;-0.038;2023-04-25T08:57:57;8.30;99.90
46231;DHT22;31949;51.404;-0.038;2023-04-25T09:00:27;8.20;99.90
46231;DHT22;31949;51.404;-0.038;2023-04-25T09:02:57;8.30;99.90
46231;DHT22;31949;51.404;-0.038;2023-04-25T09:05:29;8.30;99.90
46231;DHT22;31949;51.404;-0.038;2023-04-25T09:07:57;8.40;99.90
46231;DHT22;31949;51.404;-0.038;2023-04-25T09:10:25;8.50;99.90
46231;DHT22;31949;51.404;-0.038;2023-04-25T09:13:11;8.50;99.90
46231;DHT22;31949;51.404;-0.038;2023-04-25T09:16:15;8.60;99.90
46231;DHT22;31949;51.404;-0.038;2023-04-25T09:19:34;8.40;99.90
46231;DHT22;31949;51.404;-0.038;2023-04-25T09:22:17;8.40;99.90
46231;DHT22;31949;51.404;-0.038;2023-04-25T09:24:48;8.40;99.90
46231;DHT22;31949;51.404;-0.038;2023-04-25T09:27:21;8.60;99.90
46231;DHT22;31949;51.404;-0.038;2023-04-25T09:30:00;8.80;99.90
46231;DHT22;31949;51.404;-0.038;2023-04-25T09:32:38;9.00;99.90
46231;DHT22;31949;51.404;-0.038;2023-04-25T09:35:05;9.20;99.90
46231;DHT22;31949;51.404;-0.038;2023-04-25T09:37:33;9.30;99.90
46231;DHT22;31949;51.404;-0.038;2023-04-25T09:40:06;9.40;99.90
46231;DHT22;31949;51.404;-0.038;2023-04-25T09:43:09;9.50;99.90
46231;DHT22;31949;51.404;-0.038;2023-04-25T09:45:43;9.40;99.90
46231;DHT22;31949;51.404;-0.038;2023-04-25T09:48:21;9.40;99.90
46231;DHT22;31949;51.404;-0.038;2023-04-25T09:51:11;9.40;99.90
46231;DHT22;31949;51.404;-0.038;2023-04-25T09:53:45;9.60;99.90
46231;DHT22;31949;51.404;-0.038;2023-04-25T09:56:23;9.80;99.90
46231;DHT22;31949;51.404;-0.038;2023-04-25T09:58:53;9.80;99.90
46231;DHT22;31949;51.404;-0.038;2023-04-25T10:01:22;9.60;99.90
46231;DHT22;31949;51.404;-0.038;2023-04-25T10:04:04;9.50;99.90
46231;DHT22;31949;51.404;-0.038;2023-04-25T10:06:55;9.50;99.90
46231;DHT22;31949;51.404;-0.038;2023-04-25T10:09:25;9.70;99.90
46231;DHT22;31949;51.404;-0.038;2023-04-25T10:11:54;9.90;99.90
46231;DHT22;31949;51.404;-0.038;2023-04-25T10:14:22;10.10;99.90
46231;DHT22;31949;51.404;-0.038;2023-04-25T10:16:50;10.30;99.90
46231;DHT22;31949;51.404;-0.038;2023-04-25T10:19:20;10.40;99.90
46231;DHT22;31949;51.404;-0.038;2023-04-25T10:21:55;10.50;99.90
46231;DHT22;31949;51.404;-0.038;2023-04-25T10:24:25;10.60;99.90
46231;DHT22;31949;51.404;-0.038;2023-04-25T10:26:53;10.70;99.90
46231;DHT22;31949;51.404;-0.038;2023-04-25T10:29:25;10.60;99.90
46231;DHT22;31949;51.404;-0.038;2023-04-25T10:31:52;10.50;99.90
46231;DHT22;31949;51.404;-0.038;2023-04-25T10:34:24;10.60;99.90
46231;DHT22;31949;51.404;-0.038;2023-04-25T10:36:53;10.80;99.90
46231;DHT22;31949;51.404;-0.038;2023-04-25T10:39:24;10.90;99.90
46231;DHT22;31949;51.404;-0.038;2023-04-25T10:41:56;11.10;99.90
46231;DHT22;31949;51.404;-0.038;2023-04-25T10:44:30;11.20;99.90
46231;DHT22;31949;51.404;-0.038;2023-04-25T10:46:59;11.10;99.90
46231;DHT22;31949;51.404;-0.038;2023-04-25T10:49:42;11.30;99.90
46231;DHT22;31949;51.404;-0.038;2023-04-25T10:52:38;11.30;99.90
46231;DHT22;31949;51.404;-0.038;2023-04-25T10:55:07;11.10;99.90
46231;DHT22;31949;51.404;-0.038;2023-04-25T10:57:40;10.90;99.90
46231;DHT22;31949;51.404;-0.038;2023-04-25T11:00:14;10.70;99.90
46231;DHT22;31949;51.404;-0.038;2023-04-25T11:02:47;10.50;99.90
46231;DHT22;31949;51.404;-0.038;2023-04-25T11:05:34;10.50;99.90
46231;DHT22;31949;51.404;-0.038;2023-04-25T11:08:24;10.60;99.90
46231;DHT22;31949;51.404;-0.038;2023-04-25T11:10:57;10.50;99.90
46231;DHT22;31949;51.404;-0.038;2023-04-25T11:13:29;10.60;99.90
46231;DHT22;31949;51.404;-0.038;2023-04-25T11:15:57;10.70;99.90
46231;DHT22;31949;51.404;-0.038;2023-04-25T11:18:42;10.70;99.90
46231;DHT22;31949;51.404;-0.038;2023-04-25T11:21:10;10.70;99.90
46231;DHT22;31949;51.404;-0.038;2023-04-25T11:23:37;10.70;99.90
46231;DHT22;31949;51.404;-0.038;2023-04-25T11:26:04;10.80;99.90
46231;DHT22;31949;51.404;-0.038;2023-04-25T11:28:32;10.90;99.90
46231;DHT22;31949;51.404;-0.038;2023-04-25T11:30:59;10.80;99.90
46231;DHT22;31949;51.404;-0.038;2023-04-25T11:33:26;10.90;99.90
46231;DHT22;31949;51.404;-0.038;2023-04-25T11:35:54;10.80;99.90
46231;DHT22;31949;51.404;-0.038;2023-04-25T11:38:24;10.80;99.90
46231;DHT22;31949;51.404;-0.038;2023-04-25T11:40:55;10.80;99.90
46231;DHT22;31949;51.404;-0.038;2023-04-25T11:43:23;10.70;99.90
46231;DHT22;31949;51.404;-0.038;2023-04-25T11:45:50;10.60;99.90
46231;DHT22;31949;51.404;-0.038;2023-04-25T11:48:19;10.60;99.90
46231;DHT22;31949;51.404;-0.038;2023-04-25T11:50:53;10.80;99.90
46231;DHT22;31949;51.404;-0.038;2023-04-25T11:53:21;10.90;99.90
46231;DHT22;31949;51.404;-0.038;2023-04-25T11:55:48;11.00;99.90
46231;DHT22;31949;51.404;-0.038;2023-04-25T11:58:18;11.10;99.90
46231;DHT22;31949;51.404;-0.038;2023-04-25T12:00:46;11.40;99.90
46231;DHT22;31949;51.404;-0.038;2023-04-25T12:03:18;11.70;99.90
46231;DHT22;31949;51.404;-0.038;2023-04-25T12:05:46;12.00;99.90
46231;DHT22;31949;51.404;-0.038;2023-04-25T12:08:14;12.20;99.50
46231;DHT22;31949;51.404;-0.038;2023-04-25T12:10:45;12.20;99.90
46231;DHT22;31949;51.404;-0.038;2023-04-25T12:13:23;12.20;99.00
46231;DHT22;31949;51.404;-0.038;2023-04-25T12:15:53;11.80;99.20
46231;DHT22;31949;51.404;-0.038;2023-04-25T12:18:25;11.60;99.90
46231;DHT22;31949;51.404;-0.038;2023-04-25T12:20:55;11.50;99.90
46231;DHT22;31949;51.404;-0.038;2023-04-25T12:23:27;11.50;98.70
46231;DHT22;31949;51.404;-0.038;2023-04-25T12:25:55;11.50;99.00
46231;DHT22;31949;51.404;-0.038;2023-04-25T12:28:24;11.50;98.10
46231;DHT22;31949;51.404;-0.038;2023-04-25T12:30:58;11.50;98.10
46231;DHT22;31949;51.404;-0.038;2023-04-25T12:33:28;11.50;99.50
46231;DHT22;31949;51.404;-0.038;2023-04-25T12:35:55;11.50;99.60
46231;DHT22;31949;51.404;-0.038;2023-04-25T12:38:28;11.60;99.60
46231;DHT22;31949;51.404;-0.038;2023-04-25T12:40:57;11.40;99.60
46231;DHT22;31949;51.404;-0.038;2023-04-25T12:43:25;11.40;99.80
46231;DHT22;31949;51.404;-0.038;2023-04-25T12:45:53;11.30;98.30
46231;DHT22;31949;51.404;-0.038;2023-04-25T12:48:21;11.20;98.60
46231;DHT22;31949;51.404;-0.038;2023-04-25T12:50:49;11.10;98.50
46231;DHT22;31949;51.404;-0.038;2023-04-25T12:53:22;11.20;98.70
46231;DHT22;31949;51.404;-0.038;2023-04-25T12:55:49;11.20;98.80
46231;DHT22;31949;51.404;-0.038;2023-04-25T12:58:18;11.30;98.70
46231;DHT22;31949;51.404;-0.038;2023-04-25T13:00:46;11.30;98.90
46231;DHT22;31949;51.404;-0.038;2023-04-25T13:03:13;11.40;98.80
46231;DHT22;31949;51.404;-0.038;2023-04-25T13:05:42;11.50;99.50
46231;DHT22;31949;51.404;-0.038;2023-04-25T13:08:09;11.60;99.90
46231;DHT22;31949;51.404;-0.038;2023-04-25T13:10:36;11.70;98.60
46231;DHT22;31949;51.404;-0.038;2023-04-25T13:13:06;11.80;97.90
46231;DHT22;31949;51.404;-0.038;2023-04-25T13:15:33;12.10;98.40
46231;DHT22;31949;51.404;-0.038;2023-04-25T13:18:01;12.30;97.20
46231;DHT22;31949;51.404;-0.038;2023-04-25T13:20:28;12.30;97.50
46231;DHT22;31949;51.404;-0.038;2023-04-25T13:22:56;12.40;98.40
46231;DHT22;31949;51.404;-0.038;2023-04-25T13:25:26;12.40;97.50
46231;DHT22;31949;51.404;-0.038;2023-04-25T13:27:53;12.40;98.70
46231;DHT22;31949;51.404;-0.038;2023-04-25T13:30:20;12.40;97.30
46231;DHT22;31949;51.404;-0.038;2023-04-25T13:32:47;12.40;97.90
46231;DHT22;31949;51.404;-0.038;2023-04-25T13:35:16;12.30;97.50
46231;DHT22;31949;51.404;-0.038;2023-04-25T13:37:44;12.20;98.50
46231;DHT22;31949;51.404;-0.038;2023-04-25T13:40:12;12.30;98.20
46231;DHT22;31949;51.404;-0.038;2023-04-25T13:42:39;12.40;98.20
46231;DHT22;31949;51.404;-0.038;2023-04-25T13:45:07;12.40;99.40
46231;DHT22;31949;51.404;-0.038;2023-04-25T13:47:35;12.50;95.80
46231;DHT22;31949;51.404;-0.038;2023-04-25T13:50:03;12.30;96.60
46231;DHT22;31949;51.404;-0.038;2023-04-25T13:52:32;12.10;96.10
46231;DHT22;31949;51.404;-0.038;2023-04-25T13:55:00;11.90;97.40
46231;DHT22;31949;51.404;-0.038;2023-04-25T13:57:33;11.90;96.90
46231;DHT22;31949;51.404;-0.038;2023-04-25T14:00:01;11.90;97.40
46231;DHT22;31949;51.404;-0.038;2023-04-25T14:02:37;12.10;98.20
46231;DHT22;31949;51.404;-0.038;2023-04-25T14:05:05;12.40;96.00
46231;DHT22;31949;51.404;-0.038;2023-04-25T14:07:34;12.40;96.40
46231;DHT22;31949;51.404;-0.038;2023-04-25T14:10:03;12.50;95.80
46231;DHT22;31949;51.404;-0.038;2023-04-25T14:12:32;12.50;96.40
46231;DHT22;31949;51.404;-0.038;2023-04-25T14:15:03;12.60;97.20
46231;DHT22;31949;51.404;-0.038;2023-04-25T14:17:31;12.60;97.40
46231;DHT22;31949;51.404;-0.038;2023-04-25T14:19:59;12.60;97.00
46231;DHT22;31949;51.404;-0.038;2023-04-25T14:22:26;12.50;96.40
46231;DHT22;31949;51.404;-0.038;2023-04-25T14:24:54;12.40;98.30
46231;DHT22;31949;51.404;-0.038;2023-04-25T14:27:22;12.40;97.30
46231;DHT22;31949;51.404;-0.038;2023-04-25T14:29:49;12.30;97.10
46231;DHT22;31949;51.404;-0.038;2023-04-25T14:32:17;12.40;99.00
46231;DHT22;31949;51.404;-0.038;2023-04-25T14:34:44;12.40;98.30
46231;DHT22;31949;51.404;-0.038;2023-04-25T14:37:12;12.40;97.30
46231;DHT22;31949;51.404;-0.038;2023-04-25T14:39:39;12.40;96.80
46231;DHT22;31949;51.404;-0.038;2023-04-25T14:42:06;12.50;97.00
46231;DHT22;31949;51.404;-0.038;2023-04-25T14:44:33;12.50;97.00
46231;DHT22;31949;51.404;-0.038;2023-04-25T14:47:01;12.50;97.50
46231;DHT22;31949;51.404;-0.038;2023-04-25T14:49:28;12.60;99.20
46231;DHT22;31949;51.404;-0.038;2023-04-25T14:51:56;12.60;97.20
46231;DHT22;31949;51.404;-0.038;2023-04-25T14:54:23;12.70;97.00
46231;DHT22;31949;51.404;-0.038;2023-04-25T14:56:51;12.80;97.20
46231;DHT22;31949;51.404;-0.038;2023-04-25T14:59:18;12.80;97.00
46231;DHT22;31949;51.404;-0.038;2023-04-25T15:01:46;12.70;95.90
46231;DHT22;31949;51.404;-0.038;2023-04-25T15:04:14;12.80;97.80
46231;DHT22;31949;51.404;-0.038;2023-04-25T15:06:42;12.90;96.60
46231;DHT22;31949;51.404;-0.038;2023-04-25T15:09:11;12.90;97.50
46231;DHT22;31949;51.404;-0.038;2023-04-25T15:11:38;12.90;95.80
46231;DHT22;31949;51.404;-0.038;2023-04-25T15:14:06;13.00;94.60
46231;DHT22;31949;51.404;-0.038;2023-04-25T15:16:33;12.90;94.40
46231;DHT22;31949;51.404;-0.038;2023-04-25T15:19:00;12.90;96.40
46231;DHT22;31949;51.404;-0.038;2023-04-25T15:21:31;13.10;96.80
46231;DHT22;31949;51.404;-0.038;2023-04-25T15:23:58;13.10;95.80
46231;DHT22;31949;51.404;-0.038;2023-04-25T15:26:26;13.10;96.70
46231;DHT22;31949;51.404;-0.038;2023-04-25T15:28:54;13.10;95.70
46231;DHT22;31949;51.404;-0.038;2023-04-25T15:31:22;13.10;96.00
46231;DHT22;31949;51.404;-0.038;2023-04-25T15:33:49;13.10;95.20
46231;DHT22;31949;51.404;-0.038;2023-04-25T15:36:17;13.00;95.00
46231;DHT22;31949;51.404;-0.038;2023-04-25T15:38:45;13.00;96.80
46231;DHT22;31949;51.404;-0.038;2023-04-25T15:41:13;12.80;95.20
46231;DHT22;31949;51.404;-0.038;2023-04-25T15:43:40;12.90;95.30
46231;DHT22;31949;51.404;-0.038;2023-04-25T15:46:07;12.90;94.00
46231;DHT22;31949;51.404;-0.038;2023-04-25T15:48:35;12.70;95.20
46231;DHT22;31949;51.404;-0.038;2023-04-25T15:51:03;12.70;94.10